Time;durP1;ratioP1;P1;durP2;ratioP2;P2;SDS_P1;SDS_P2;PMS_P1;PMS_P2;Temp;Humidity;BMP_temperature;BMP_pressure;BME280_temperature;BME280_humidity;BME280_pressure;Samples;Min_cycle;Max_cycle;Signal;HPM_P1;HPM_P2
2022/08/18 00:02:00;;;;;;;5.85;5.25;;;21.80;99.90;;;;;;5055737;28;20289;-58
2022/08/18 00:04:27;;;;;;;6.47;4.97;;;21.50;99.90;;;;;;5055015;28;20296;-58
2022/08/18 00:06:54;;;;;;;6.28;5.70;;;21.10;99.90;;;;;;5055013;28;20209;-58
2022/08/18 00:09:23;;;;;;;6.68;5.30;;;20.90;99.90;;;;;;5055689;28;20221;-58
2022/08/18 00:11:50;;;;;;;6.25;5.65;;;20.70;99.90;;;;;;5055155;28;20284;-58
2022/08/18 00:14:19;;;;;;;6.07;5.55;;;20.50;99.90;;;;;;5055198;28;20209;-58
2022/08/18 00:16:46;;;;;;;6.20;5.60;;;20.40;99.90;;;;;;5054986;28;20293;-58
2022/08/18 00:19:13;;;;;;;6.38;5.70;;;20.30;99.90;;;;;;5055413;28;20669;-58
2022/08/18 00:21:40;;;;;;;7.60;6.45;;;20.20;99.90;;;;;;5055215;28;20213;-58
2022/08/18 00:24:07;;;;;;;7.78;6.25;;;20.30;99.90;;;;;;5055044;28;20205;-57
2022/08/18 00:26:35;;;;;;;11.10;7.25;;;20.30;99.90;;;;;;5054986;28;20232;-58
2022/08/18 00:29:02;;;;;;;9.20;6.75;;;20.40;99.90;;;;;;5055315;28;20225;-58
2022/08/18 00:31:30;;;;;;;7.65;6.95;;;20.50;99.90;;;;;;5054564;28;20665;-58
2022/08/18 00:33:57;;;;;;;6.88;6.22;;;20.60;99.90;;;;;;5054728;28;20657;-58
2022/08/18 00:36:24;;;;;;;7.55;6.85;;;20.70;99.90;;;;;;5054632;28;20240;-58
2022/08/18 00:38:51;;;;;;;7.80;7.00;;;20.70;99.90;;;;;;5054189;28;20198;-58
2022/08/18 00:41:19;;;;;;;7.25;6.50;;;20.80;99.90;;;;;;5054446;28;20213;-58
2022/08/18 00:43:49;;;;;;;7.78;6.63;;;20.90;99.90;;;;;;5054278;28;20233;-58
2022/08/18 00:46:19;;;;;;;10.10;6.57;;;21.00;99.90;;;;;;5053614;28;20805;-57
2022/08/18 00:48:46;;;;;;;7.80;6.85;;;21.00;99.90;;;;;;5054163;28;20210;-58
2022/08/18 00:51:16;;;;;;;7.13;6.43;;;21.10;99.90;;;;;;5054121;28;20220;-58
2022/08/18 00:53:48;;;;;;;8.20;7.28;;;21.20;99.90;;;;;;5054044;28;20217;-58
2022/08/18 00:56:21;;;;;;;7.72;6.85;;;21.20;99.90;;;;;;5053918;28;20287;-58
2022/08/18 00:58:55;;;;;;;7.18;6.25;;;21.30;99.90;;;;;;5053788;28;20226;-58
2022/08/18 01:01:24;;;;;;;9.77;7.30;;;21.30;99.90;;;;;;5053608;28;20730;-58
2022/08/18 01:03:57;;;;;;;6.75;6.15;;;21.40;99.90;;;;;;5053360;28;20205;-58
2022/08/18 01:06:28;;;;;;;7.07;6.32;;;21.40;99.90;;;;;;5053554;28;20241;-58
2022/08/18 01:08:55;;;;;;;6.40;5.75;;;21.40;99.90;;;;;;5053598;28;20229;-57
2022/08/18 01:11:22;;;;;;;7.13;6.03;;;21.40;99.90;;;;;;5053464;28;20205;-58
2022/08/18 01:13:52;;;;;;;7.30;6.50;;;21.50;99.90;;;;;;5053467;28;20210;-58
2022/08/18 01:21:55;;;;;;;7.60;6.03;;;21.40;99.90;;;;;;5053048;28;20211;-58
2022/08/18 01:27:08;;;;;;;6.50;5.57;;;21.40;99.90;;;;;;5052305;28;20578;-59
2022/08/18 01:29:36;;;;;;;6.45;5.85;;;21.40;99.90;;;;;;5052650;28;20256;-57
2022/08/18 01:32:03;;;;;;;7.50;6.10;;;21.40;99.90;;;;;;5052654;28;20213;-58
2022/08/18 01:34:30;;;;;;;7.50;6.30;;;21.40;99.90;;;;;;5052395;28;20206;-58
2022/08/18 01:36:58;;;;;;;6.68;6.07;;;21.40;99.90;;;;;;5052375;28;20210;-58
2022/08/18 01:39:26;;;;;;;7.68;6.88;;;21.30;99.90;;;;;;5052509;28;20293;-58
2022/08/18 01:41:53;;;;;;;8.38;6.45;;;21.20;99.90;;;;;;5052543;28;20213;-57
2022/08/18 01:44:20;;;;;;;7.55;6.63;;;21.10;99.90;;;;;;5052572;28;20212;-58
2022/08/18 01:46:47;;;;;;;8.10;6.50;;;21.10;99.90;;;;;;5052590;28;20230;-58
2022/08/18 01:49:13;;;;;;;10.30;6.60;;;21.00;99.90;;;;;;5052488;28;20221;-58
2022/08/18 01:51:41;;;;;;;7.15;6.43;;;21.00;99.90;;;;;;5053589;28;20205;-58
2022/08/18 01:54:11;;;;;;;7.65;6.55;;;21.00;99.90;;;;;;5056281;28;20664;-58
2022/08/18 01:56:41;;;;;;;7.82;7.10;;;21.00;99.90;;;;;;5056621;28;20279;-58
2022/08/18 01:59:13;;;;;;;8.05;6.60;;;21.00;99.90;;;;;;5056529;28;20205;-58
2022/08/18 02:01:42;;;;;;;10.63;6.95;;;21.00;99.90;;;;;;5056297;28;20676;-58
2022/08/18 02:04:11;;;;;;;7.72;6.95;;;20.90;99.90;;;;;;5056098;28;20759;-58
2022/08/18 02:06:38;;;;;;;8.10;7.30;;;20.90;99.90;;;;;;5055808;28;20233;-57
2022/08/18 02:09:06;;;;;;;7.72;6.55;;;20.90;99.90;;;;;;5053824;28;20293;-62
2022/08/18 02:11:32;;;;;;;8.07;7.28;;;20.90;99.90;;;;;;5055463;28;20292;-57
2022/08/18 02:14:01;;;;;;;7.63;6.93;;;20.90;99.90;;;;;;5056037;28;20208;-59
2022/08/18 02:16:28;;;;;;;8.45;7.45;;;21.00;99.90;;;;;;5056144;28;20229;-60
2022/08/18 02:18:55;;;;;;;8.52;7.53;;;21.00;99.90;;;;;;5056368;28;20677;-62
2022/08/18 02:21:22;;;;;;;8.25;7.38;;;21.00;99.90;;;;;;5055722;28;20665;-58
2022/08/18 02:23:50;;;;;;;10.07;8.35;;;21.10;99.90;;;;;;5055897;28;20680;-63
2022/08/18 02:26:18;;;;;;;9.43;8.52;;;21.00;99.90;;;;;;5056020;28;20221;-63
2022/08/18 02:28:45;;;;;;;9.52;7.50;;;21.10;99.90;;;;;;5055475;28;20213;-57
2022/08/18 02:31:18;;;;;;;9.95;7.10;;;21.10;99.90;;;;;;5055098;28;20271;-57
2022/08/18 02:33:46;;;;;;;9.70;8.35;;;21.20;99.90;;;;;;5055109;28;20632;-57
2022/08/18 02:36:13;;;;;;;8.10;7.22;;;21.20;99.90;;;;;;5055135;28;20264;-57
2022/08/18 02:38:41;;;;;;;7.90;7.15;;;21.20;99.90;;;;;;5055706;28;20212;-57
2022/08/18 02:41:10;;;;;;;13.07;11.68;;;21.30;99.90;;;;;;5055474;28;20696;-57
2022/08/18 02:43:38;;;;;;;9.90;8.90;;;21.30;99.90;;;;;;5055529;28;20213;-56
2022/08/18 02:46:06;;;;;;;8.43;7.53;;;21.30;99.90;;;;;;5055482;28;20236;-57
2022/08/18 02:48:34;;;;;;;10.25;8.30;;;21.20;99.90;;;;;;5055203;28;20248;-56
2022/08/18 02:51:02;;;;;;;7.63;6.93;;;21.10;99.90;;;;;;5055503;28;20283;-59
2022/08/18 02:53:29;;;;;;;10.98;9.68;;;21.10;99.90;;;;;;5055264;28;20240;-56
2022/08/18 02:56:08;;;;;;;12.60;11.30;;;21.10;99.90;;;;;;5055394;28;20265;-57
2022/08/18 02:58:35;;;;;;;8.35;7.55;;;21.20;99.90;;;;;;5055260;28;20216;-57
2022/08/18 03:01:02;;;;;;;8.20;7.43;;;21.20;99.90;;;;;;5055203;28;20297;-57
2022/08/18 03:03:31;;;;;;;8.05;6.78;;;21.20;99.90;;;;;;5054937;28;20210;-56
2022/08/18 03:05:59;;;;;;;7.68;6.97;;;21.20;99.90;;;;;;5055575;28;20234;-56
2022/08/18 03:08:26;;;;;;;7.88;7.18;;;21.10;99.90;;;;;;5056116;28;20209;-57
2022/08/18 03:10:53;;;;;;;7.75;7.05;;;21.10;99.90;;;;;;5056257;28;20222;-56
2022/08/18 03:13:20;;;;;;;8.40;7.60;;;21.10;99.90;;;;;;5056314;28;20561;-57
2022/08/18 03:15:47;;;;;;;9.43;7.32;;;21.10;99.90;;;;;;5056191;28;20712;-56
2022/08/18 03:18:15;;;;;;;7.97;7.18;;;21.10;99.90;;;;;;5056611;28;20240;-56
2022/08/18 03:20:43;;;;;;;11.20;6.78;;;21.00;99.90;;;;;;5056511;28;20201;-56
2022/08/18 03:23:11;;;;;;;6.88;6.25;;;21.00;99.90;;;;;;5056568;28;20333;-56
2022/08/18 03:25:44;;;;;;;9.60;8.38;;;20.90;99.90;;;;;;5057141;28;20275;-56
2022/08/18 03:28:12;;;;;;;7.50;6.22;;;20.90;99.90;;;;;;5057843;28;20638;-56
2022/08/18 03:30:38;;;;;;;10.40;7.55;;;20.90;99.90;;;;;;5056722;28;20257;-58
2022/08/18 03:33:05;;;;;;;8.05;6.40;;;20.90;99.90;;;;;;5056414;28;20307;-57
2022/08/18 03:35:35;;;;;;;7.93;7.05;;;21.00;99.90;;;;;;5055465;28;20234;-56
2022/08/18 03:38:02;;;;;;;10.45;6.38;;;21.00;99.90;;;;;;5055781;28;20206;-56
2022/08/18 03:40:30;;;;;;;8.18;7.45;;;21.00;99.90;;;;;;5055818;28;20212;-56
2022/08/18 03:42:56;;;;;;;9.70;7.78;;;21.00;99.90;;;;;;5055525;28;20210;-56
2022/08/18 03:45:27;;;;;;;8.95;8.02;;;21.00;99.90;;;;;;5056057;28;20252;-56
2022/08/18 03:47:54;;;;;;;9.05;8.10;;;21.00;99.90;;;;;;5055727;28;20202;-57
2022/08/18 03:50:24;;;;;;;9.75;8.85;;;21.00;99.90;;;;;;5055838;28;20225;-57
2022/08/18 03:52:51;;;;;;;14.70;10.25;;;21.00;99.90;;;;;;5058785;28;20232;-57
2022/08/18 03:55:18;;;;;;;9.23;8.25;;;21.10;99.90;;;;;;5056325;28;20228;-56
2022/08/18 03:57:47;;;;;;;11.07;8.93;;;21.10;99.90;;;;;;5058128;28;20212;-56
2022/08/18 04:00:14;;;;;;;9.07;8.07;;;21.10;99.90;;;;;;5057624;28;20216;-56
2022/08/18 04:02:41;;;;;;;9.90;8.90;;;20.90;99.90;;;;;;5057401;28;20232;-57
2022/08/18 04:05:10;;;;;;;10.35;9.38;;;20.80;99.90;;;;;;5057450;28;20238;-57
2022/08/18 04:07:37;;;;;;;9.38;8.57;;;20.70;99.90;;;;;;5055609;28;20292;-57
2022/08/18 04:10:05;;;;;;;10.82;9.73;;;20.80;99.90;;;;;;5056016;28;20233;-57
2022/08/18 04:12:33;;;;;;;10.80;9.70;;;20.90;99.90;;;;;;5055138;28;20214;-57
2022/08/18 04:15:01;;;;;;;11.93;10.00;;;20.90;99.90;;;;;;5053722;28;20235;-57
2022/08/18 04:17:28;;;;;;;10.57;9.57;;;20.90;99.90;;;;;;5055258;28;20724;-57
2022/08/18 04:19:56;;;;;;;11.77;10.57;;;21.00;99.90;;;;;;5055299;28;20201;-57
2022/08/18 04:22:25;;;;;;;11.57;10.40;;;21.00;99.90;;;;;;5055350;28;20209;-57
2022/08/18 04:24:52;;;;;;;9.93;9.02;;;21.00;99.90;;;;;;5054731;28;20232;-57
2022/08/18 04:27:20;;;;;;;9.70;8.80;;;20.90;99.90;;;;;;5055078;28;20248;-57
2022/08/18 04:29:48;;;;;;;8.23;7.45;;;20.90;99.90;;;;;;5054868;28;20210;-57
2022/08/18 04:32:16;;;;;;;8.05;7.28;;;21.00;99.90;;;;;;5054785;28;20212;-57
2022/08/18 04:34:43;;;;;;;8.35;7.45;;;20.90;99.90;;;;;;5053963;28;20936;-57
2022/08/18 04:37:09;;;;;;;8.20;7.50;;;20.90;99.90;;;;;;5054027;28;20206;-56
2022/08/18 04:39:37;;;;;;;7.90;7.18;;;20.90;99.90;;;;;;5053958;28;20207;-57
2022/08/18 04:42:04;;;;;;;7.25;6.65;;;21.00;99.90;;;;;;5054276;28;20232;-57
2022/08/18 04:44:31;;;;;;;7.97;7.18;;;20.90;99.90;;;;;;5054083;28;20202;-57
2022/08/18 04:47:00;;;;;;;7.72;6.97;;;20.90;99.90;;;;;;5054421;28;20205;-57
2022/08/18 04:49:30;;;;;;;9.57;7.47;;;21.00;99.90;;;;;;5053956;28;20637;-57
2022/08/18 04:54:42;;;;;;;7.25;6.65;;;21.00;99.90;;;;;;5053721;28;20251;-57
2022/08/18 04:57:11;;;;;;;7.90;7.05;;;21.10;99.90;;;;;;5054032;28;20217;-59
2022/08/18 04:59:40;;;;;;;10.10;6.57;;;21.10;99.90;;;;;;5053637;28;20201;-57
2022/08/18 05:02:07;;;;;;;11.75;10.55;;;21.10;99.90;;;;;;5054083;28;20197;-57
2022/08/18 05:04:37;;;;;;;7.07;6.38;;;21.20;99.90;;;;;;5053957;28;20209;-57
2022/08/18 05:07:04;;;;;;;8.18;7.38;;;21.30;99.90;;;;;;5053985;28;20238;-57
2022/08/18 05:09:32;;;;;;;7.15;6.47;;;21.40;99.90;;;;;;5054293;28;20201;-57
2022/08/18 05:11:59;;;;;;;8.15;6.93;;;21.50;99.90;;;;;;5053975;28;20237;-62
2022/08/18 05:14:26;;;;;;;6.97;6.35;;;21.70;99.90;;;;;;5053879;28;20209;-56
2022/08/18 05:16:53;;;;;;;6.97;6.13;;;21.90;99.90;;;;;;5053609;28;20638;-57
2022/08/18 05:19:21;;;;;;;7.45;6.00;;;22.10;99.90;;;;;;5053588;28;20205;-57
2022/08/18 05:21:50;;;;;;;7.05;6.30;;;22.30;99.90;;;;;;5052694;28;20201;-57
2022/08/18 05:24:18;;;;;;;6.57;5.90;;;22.50;99.90;;;;;;5052917;28;20209;-57
2022/08/18 05:26:45;;;;;;;7.18;6.05;;;22.70;99.90;;;;;;5056080;28;20225;-57
2022/08/18 05:29:12;;;;;;;6.95;6.25;;;22.70;99.90;;;;;;5056650;28;20218;-57
2022/08/18 05:31:39;;;;;;;7.13;6.40;;;22.90;99.90;;;;;;5057012;28;20225;-57
2022/08/18 05:34:06;;;;;;;8.10;6.05;;;22.90;99.90;;;;;;5056777;28;20215;-57
2022/08/18 05:36:52;;;;;;;6.85;6.25;;;23.00;99.90;;;;;;5057378;28;20225;-57
2022/08/18 05:39:24;;;;;;;6.85;5.90;;;23.00;99.90;;;;;;5056848;28;20213;-57
2022/08/18 05:41:55;;;;;;;7.45;6.60;;;23.10;99.90;;;;;;5057052;28;20201;-58
2022/08/18 05:44:27;;;;;;;7.20;6.40;;;23.20;99.90;;;;;;5056592;28;20212;-57
2022/08/18 05:46:55;;;;;;;7.38;5.97;;;23.40;99.90;;;;;;5056312;28;20205;-57
2022/08/18 05:49:25;;;;;;;8.32;5.80;;;23.60;99.90;;;;;;5057151;28;20210;-58
2022/08/18 05:51:57;;;;;;;6.18;5.57;;;24.20;99.90;;;;;;5057124;28;20221;-57
2022/08/18 05:57:15;;;;;;;5.97;5.40;;;26.20;99.90;;;;;;5057375;28;20556;-57
2022/08/18 05:59:43;;;;;;;6.50;5.40;;;27.20;99.90;;;;;;5057334;28;20300;-57
2022/08/18 06:02:17;;;;;;;9.05;5.53;;;28.20;99.90;;;;;;5058374;28;20212;-57
2022/08/18 06:04:49;;;;;;;6.15;5.55;;;29.20;99.90;;;;;;5057902;28;20256;-57
2022/08/18 06:07:23;;;;;;;7.45;5.07;;;29.60;99.90;;;;;;5058764;28;20216;-56
2022/08/18 06:09:53;;;;;;;6.70;5.10;;;29.80;99.90;;;;;;5057956;28;20259;-56
2022/08/18 06:12:26;;;;;;;5.20;4.55;;;30.30;99.90;;;;;;5057620;28;20232;-59
2022/08/18 06:15:01;;;;;;;6.40;4.80;;;30.50;99.90;;;;;;5056890;28;20232;-57
2022/08/18 06:17:40;;;;;;;5.07;4.57;;;30.40;99.90;;;;;;5057720;28;20205;-56
2022/08/18 06:20:14;;;;;;;6.38;4.25;;;30.00;99.90;;;;;;5057734;28;20211;-57
2022/08/18 06:22:53;;;;;;;6.85;4.82;;;29.50;99.90;;;;;;5056932;28;20213;-57
2022/08/18 06:25:25;;;;;;;5.68;5.07;;;29.00;99.90;;;;;;5056915;28;20233;-57
2022/08/18 06:28:00;;;;;;;8.35;5.05;;;28.50;99.90;;;;;;5056549;28;20201;-56
2022/08/18 06:30:41;;;;;;;5.20;4.75;;;28.10;99.90;;;;;;5056787;28;20216;-57
2022/08/18 06:33:28;;;;;;;5.68;4.88;;;27.80;99.90;;;;;;5056403;28;20205;-57
2022/08/18 06:36:01;;;;;;;6.03;5.32;;;27.50;99.90;;;;;;5056646;28;20229;-57
2022/08/18 06:38:46;;;;;;;6.70;5.15;;;27.30;99.90;;;;;;5055826;28;20209;-57
2022/08/18 06:41:16;;;;;;;5.38;4.85;;;27.40;99.90;;;;;;5056443;28;20213;-57
2022/08/18 06:43:57;;;;;;;4.93;4.40;;;27.50;99.90;;;;;;5056102;28;20212;-57
2022/08/18 06:46:33;;;;;;;5.70;4.88;;;27.60;99.90;;;;;;5056307;28;20229;-56
2022/08/18 06:49:04;;;;;;;4.75;4.28;;;27.60;99.90;;;;;;5056118;28;20263;-57
2022/08/18 06:51:32;;;;;;;5.43;4.93;;;27.80;99.90;;;;;;5056948;28;20232;-57
2022/08/18 06:54:02;;;;;;;5.72;5.22;;;28.10;99.90;;;;;;5056143;28;20213;-57
2022/08/18 06:56:36;;;;;;;8.05;5.32;;;28.30;99.90;;;;;;5055814;28;20232;-57
2022/08/18 06:59:26;;;;;;;7.97;5.70;;;28.40;99.90;;;;;;5056638;28;20205;-57
2022/08/18 07:01:56;;;;;;;7.00;5.07;;;28.50;99.90;;;;;;5056654;28;20198;-57
2022/08/18 07:04:41;;;;;;;7.40;5.57;;;28.60;99.90;;;;;;5056583;28;20201;-57
2022/08/18 07:07:34;;;;;;;7.28;5.80;;;28.10;99.90;;;;;;5056623;28;20650;-57
2022/08/18 07:10:05;;;;;;;6.95;5.43;;;27.50;99.90;;;;;;5056478;28;20645;-56
2022/08/18 07:12:32;;;;;;;7.00;5.82;;;27.50;99.90;;;;;;5056229;28;20225;-57
2022/08/18 07:15:02;;;;;;;7.55;5.28;;;27.40;99.90;;;;;;5056396;28;20235;-57
2022/08/18 07:17:32;;;;;;;5.93;5.22;;;27.50;99.90;;;;;;5056274;28;20210;-57
2022/08/18 07:20:03;;;;;;;6.10;5.53;;;27.60;99.90;;;;;;5056907;28;20209;-57
2022/08/18 07:22:31;;;;;;;10.90;5.53;;;27.50;99.90;;;;;;5056386;28;20197;-58
2022/08/18 07:25:04;;;;;;;6.65;5.93;;;27.30;99.90;;;;;;5056170;28;20269;-57
2022/08/18 07:27:45;;;;;;;6.72;5.97;;;27.20;99.90;;;;;;5055865;28;20206;-57
2022/08/18 07:30:14;;;;;;;5.75;5.20;;;27.00;99.90;;;;;;5055876;28;20296;-57
2022/08/18 07:32:46;;;;;;;5.95;5.43;;;27.00;99.90;;;;;;5055806;28;20685;-57
2022/08/18 07:35:18;;;;;;;6.90;6.20;;;27.10;99.90;;;;;;5055903;28;20225;-57
2022/08/18 07:37:49;;;;;;;6.00;5.47;;;27.20;99.90;;;;;;5055778;28;20186;-58
2022/08/18 07:40:24;;;;;;;6.00;5.40;;;27.40;99.90;;;;;;5054255;28;20206;-57
2022/08/18 07:43:00;;;;;;;7.45;5.47;;;27.20;99.90;;;;;;5054158;28;20288;-58
2022/08/18 07:45:32;;;;;;;7.85;5.22;;;27.00;99.90;;;;;;5054180;28;20229;-58
2022/08/18 07:48:04;;;;;;;8.00;5.70;;;27.00;99.90;;;;;;5054035;28;20214;-58
2022/08/18 07:50:39;;;;;;;6.07;5.55;;;27.10;99.90;;;;;;5054160;28;20259;-58
2022/08/18 07:53:15;;;;;;;8.30;5.38;;;27.20;99.90;;;;;;5054141;28;20228;-57
2022/08/18 07:55:51;;;;;;;6.70;5.30;;;27.30;99.90;;;;;;5053384;28;20802;-58
2022/08/18 07:58:26;;;;;;;8.90;5.35;;;27.30;99.90;;;;;;5053653;28;20255;-58
2022/08/18 08:00:59;;;;;;;5.88;4.90;;;27.20;99.90;;;;;;5054179;28;20212;-58
2022/08/18 08:03:34;;;;;;;5.70;5.00;;;27.00;99.90;;;;;;5053799;28;20643;-58
2022/08/18 08:06:11;;;;;;;5.82;4.47;;;26.80;99.90;;;;;;5051327;28;20327;-62
2022/08/18 08:08:44;;;;;;;5.60;4.88;;;26.50;99.90;;;;;;5052944;28;20292;-61
2022/08/18 08:11:21;;;;;;;6.63;5.25;;;26.30;99.90;;;;;;5052292;28;20719;-61
2022/08/18 08:14:17;;;;;;;6.43;4.80;;;26.00;99.90;;;;;;5052571;28;20740;-61
2022/08/18 08:16:48;;;;;;;6.80;4.93;;;25.70;99.90;;;;;;5051470;28;20261;-61
2022/08/18 08:19:34;;;;;;;5.72;4.90;;;25.60;99.90;;;;;;5052035;28;20201;-57
2022/08/18 08:22:08;;;;;;;5.78;4.82;;;25.50;99.90;;;;;;5051858;28;20201;-57
2022/08/18 08:24:41;;;;;;;5.45;4.82;;;25.40;99.90;;;;;;5053258;28;20205;-64
2022/08/18 08:27:18;;;;;;;5.35;4.90;;;25.40;99.90;;;;;;5055023;28;20236;-58
2022/08/18 08:29:53;;;;;;;6.15;5.45;;;25.30;99.90;;;;;;5052190;28;20669;-64
2022/08/18 08:32:29;;;;;;;6.05;5.45;;;25.20;99.90;;;;;;5053343;28;20677;-58
2022/08/18 08:34:59;;;;;;;5.95;5.35;;;25.10;99.90;;;;;;5052087;28;20241;-62
2022/08/18 08:37:37;;;;;;;6.28;5.55;;;24.90;99.90;;;;;;5052077;28;20244;-57
2022/08/18 08:40:09;;;;;;;5.82;5.30;;;24.70;99.90;;;;;;5051850;28;20213;-57
2022/08/18 08:42:43;;;;;;;7.15;6.00;;;24.60;99.90;;;;;;5051802;28;20209;-57
2022/08/18 08:45:15;;;;;;;7.05;5.35;;;24.40;99.90;;;;;;5052244;28;20579;-61
2022/08/18 08:47:51;;;;;;;7.60;5.85;;;24.30;99.90;;;;;;5052515;28;20205;-58
2022/08/18 08:50:22;;;;;;;9.38;6.03;;;24.20;99.90;;;;;;5052119;28;20213;-59
2022/08/18 08:52:52;;;;;;;6.97;5.80;;;24.30;99.90;;;;;;5052349;28;20229;-61
2022/08/18 08:55:24;;;;;;;6.20;5.63;;;24.30;99.90;;;;;;5051558;28;20328;-62
2022/08/18 08:57:56;;;;;;;7.35;6.30;;;24.40;99.90;;;;;;5054234;28;20216;-59
2022/08/18 09:00:25;;;;;;;9.30;6.68;;;24.40;99.90;;;;;;5051503;28;20833;-59
2022/08/18 09:03:08;;;;;;;8.27;6.57;;;24.40;99.90;;;;;;5052067;28;20260;-58
2022/08/18 09:05:41;;;;;;;9.85;6.53;;;24.50;99.90;;;;;;5051686;28;20237;-59
2022/08/18 09:08:31;;;;;;;8.38;6.28;;;24.40;99.90;;;;;;5052026;28;20248;-59
2022/08/18 09:11:23;;;;;;;6.72;5.90;;;24.20;99.90;;;;;;5055095;28;20217;-67
2022/08/18 09:14:14;;;;;;;6.60;5.68;;;24.30;99.90;;;;;;5053356;28;20213;-62
2022/08/18 09:16:52;;;;;;;5.82;4.78;;;24.50;99.90;;;;;;5054322;28;20684;-58
2022/08/18 09:19:46;;;;;;;5.90;5.38;;;25.00;99.90;;;;;;5053142;28;20295;-56
2022/08/18 09:22:21;;;;;;;7.35;5.75;;;25.50;99.90;;;;;;5052690;28;20608;-59
2022/08/18 09:24:51;;;;;;;6.45;5.80;;;25.80;99.90;;;;;;5054040;28;20859;-63
2022/08/18 09:27:32;;;;;;;6.82;6.13;;;25.80;99.90;;;;;;5053586;28;20219;-63
2022/08/18 09:30:02;;;;;;;6.18;5.65;;;26.00;99.90;;;;;;5054209;28;20213;-58
2022/08/18 09:32:56;;;;;;;6.32;5.22;;;26.20;99.90;;;;;;5055783;28;20240;-58
2022/08/18 09:35:53;;;;;;;6.20;5.60;;;26.90;99.90;;;;;;5055715;28;20236;-58
2022/08/18 09:44:09;;;;;;;12.88;6.47;;;28.10;99.90;;;;;;5053718;28;20201;-56
2022/08/18 09:46:52;;;;;;;6.82;5.50;;;28.10;99.90;;;;;;5053904;28;20275;-57
2022/08/18 09:49:47;;;;;;;7.35;6.65;;;27.80;99.90;;;;;;5052377;28;20213;-56
2022/08/18 09:52:53;;;;;;;8.13;5.95;;;27.80;99.90;;;;;;5053686;28;20729;-57
2022/08/18 09:55:53;;;;;;;6.22;5.60;;;27.90;99.90;;;;;;5053434;28;20604;-57
2022/08/18 09:58:36;;;;;;;6.95;5.68;;;28.40;99.90;;;;;;5054056;28;20233;-57
2022/08/18 10:01:20;;;;;;;7.63;6.68;;;28.50;99.90;;;;;;5053533;28;20206;-57
2022/08/18 10:04:19;;;;;;;7.22;5.35;;;28.70;99.90;;;;;;5054238;28;20448;-57
2022/08/18 10:06:49;;;;;;;6.25;5.60;;;28.80;99.90;;;;;;5054713;28;20242;-56
2022/08/18 10:09:30;;;;;;;6.50;5.95;;;28.90;99.90;;;;;;5054512;28;20209;-55
2022/08/18 10:12:22;;;;;;;6.55;5.85;;;28.90;99.90;;;;;;5054326;28;20671;-55
2022/08/18 10:15:13;;;;;;;7.13;5.75;;;28.90;99.90;;;;;;5057222;28;20233;-55
2022/08/18 10:17:50;;;;;;;8.02;7.30;;;28.90;99.90;;;;;;5056825;28;20257;-56
2022/08/18 10:20:37;;;;;;;8.60;7.30;;;28.90;99.90;;;;;;5057319;28;20665;-56
2022/08/18 10:23:06;;;;;;;9.93;6.50;;;28.80;99.90;;;;;;5058041;28;20224;-56
2022/08/18 10:25:37;;;;;;;7.03;5.93;;;28.80;99.90;;;;;;5056831;28;20268;-56
2022/08/18 10:28:06;;;;;;;7.43;6.72;;;28.90;99.90;;;;;;5057409;28;20500;-55
2022/08/18 10:31:02;;;;;;;7.50;6.53;;;29.00;99.90;;;;;;5054293;28;20704;-55
2022/08/18 10:34:10;;;;;;;7.85;6.68;;;28.80;99.90;;;;;;5055492;28;20646;-56
2022/08/18 10:36:50;;;;;;;7.70;6.97;;;28.50;99.90;;;;;;5055844;28;20225;-55
2022/08/18 10:39:21;;;;;;;7.30;6.45;;;28.40;99.90;;;;;;5055811;28;20241;-55
2022/08/18 10:42:05;;;;;;;8.13;7.32;;;28.50;99.90;;;;;;5055264;28;20232;-56
2022/08/18 10:44:37;;;;;;;10.70;6.93;;;28.50;99.90;;;;;;5054476;28;20213;-56
2022/08/18 10:47:04;;;;;;;8.20;6.78;;;28.50;99.90;;;;;;5055128;28;20210;-56
2022/08/18 10:49:32;;;;;;;7.30;6.53;;;28.50;99.90;;;;;;5054497;28;20237;-57
2022/08/18 10:52:30;;;;;;;6.93;6.32;;;28.60;99.90;;;;;;5054165;28;20279;-56
2022/08/18 10:55:19;;;;;;;9.68;7.60;;;28.60;99.90;;;;;;5053914;28;20233;-56
2022/08/18 10:58:21;;;;;;;9.05;6.50;;;28.60;99.90;;;;;;5053813;28;20209;-56
2022/08/18 11:01:02;;;;;;;9.23;7.55;;;28.30;99.90;;;;;;5053933;28;20228;-58
2022/08/18 11:03:46;;;;;;;8.98;7.18;;;28.20;99.90;;;;;;5047248;28;20761;-59
2022/08/18 11:06:23;;;;;;;8.10;7.28;;;28.30;99.90;;;;;;5053196;28;20244;-61
2022/08/18 11:08:52;;;;;;;7.18;6.47;;;28.20;99.90;;;;;;5053407;28;20216;-62
2022/08/18 11:11:26;;;;;;;7.70;6.78;;;28.10;99.90;;;;;;5053483;28;20364;-60
2022/08/18 11:14:02;;;;;;;7.45;6.47;;;28.30;99.90;;;;;;5053663;28;20233;-60
2022/08/18 11:16:42;;;;;;;10.13;6.82;;;28.70;99.90;;;;;;5052852;28;20689;-60
2022/08/18 11:19:12;;;;;;;7.65;6.65;;;29.00;99.40;;;;;;5053495;28;20213;-59
2022/08/18 11:21:41;;;;;;;10.10;6.57;;;29.30;99.00;;;;;;5053031;28;20217;-60
2022/08/18 11:24:16;;;;;;;6.72;6.10;;;29.70;98.20;;;;;;5050962;28;20240;-57
2022/08/18 11:26:48;;;;;;;6.82;6.13;;;30.00;97.10;;;;;;5053091;28;20232;-57
2022/08/18 11:29:25;;;;;;;8.75;5.80;;;30.00;96.10;;;;;;5053507;28;20206;-57
2022/08/18 11:31:56;;;;;;;6.50;5.80;;;29.80;95.70;;;;;;5053232;28;20612;-58
2022/08/18 11:34:31;;;;;;;6.70;5.95;;;29.70;95.80;;;;;;5052518;28;20206;-57
2022/08/18 11:37:00;;;;;;;6.97;5.70;;;29.60;95.80;;;;;;5053279;28;20676;-57
2022/08/18 11:39:27;;;;;;;6.65;6.00;;;29.50;95.40;;;;;;5053022;28;20217;-57
2022/08/18 11:41:56;;;;;;;6.75;5.45;;;29.70;95.50;;;;;;5052543;28;20304;-58
2022/08/18 11:44:32;;;;;;;6.80;6.10;;;29.80;95.90;;;;;;5053132;28;20208;-58
2022/08/18 11:47:13;;;;;;;9.52;5.88;;;29.80;95.80;;;;;;5052856;28;20584;-58
2022/08/18 11:49:52;;;;;;;7.13;5.82;;;29.90;95.30;;;;;;5053360;28;20555;-56
2022/08/18 11:52:23;;;;;;;7.70;5.50;;;30.20;94.60;;;;;;5053201;28;20221;-56
2022/08/18 11:54:51;;;;;;;6.57;5.70;;;30.20;94.30;;;;;;5052974;28;20317;-56
2022/08/18 11:57:44;;;;;;;6.57;5.70;;;30.30;94.10;;;;;;5052549;28;20288;-56
2022/08/18 12:00:41;;;;;;;6.10;5.57;;;30.40;93.30;;;;;;5052664;28;20587;-56
2022/08/18 12:03:14;;;;;;;7.78;5.60;;;30.50;93.30;;;;;;5052862;28;20275;-57
2022/08/18 12:05:48;;;;;;;6.13;5.53;;;30.70;92.80;;;;;;5051936;28;20265;-56
2022/08/18 12:08:26;;;;;;;7.35;5.38;;;30.90;92.40;;;;;;5052344;28;20209;-56
2022/08/18 12:11:07;;;;;;;5.65;5.10;;;30.90;91.60;;;;;;5052032;28;20216;-57
2022/08/18 12:13:35;;;;;;;7.65;5.43;;;30.70;91.50;;;;;;5051858;28;20708;-56
2022/08/18 12:16:15;;;;;;;6.40;5.80;;;30.60;92.40;;;;;;5052358;28;20225;-57
2022/08/18 12:18:42;;;;;;;5.97;5.47;;;30.70;92.30;;;;;;5052641;28;20209;-56
2022/08/18 12:21:10;;;;;;;9.18;6.18;;;30.90;92.20;;;;;;5052107;28;20884;-57
2022/08/18 12:23:40;;;;;;;5.90;5.30;;;31.20;91.50;;;;;;5051633;28;20736;-57
2022/08/18 12:26:07;;;;;;;6.30;5.70;;;31.50;91.10;;;;;;5052121;28;20754;-56
2022/08/18 12:28:36;;;;;;;7.82;6.03;;;31.40;90.80;;;;;;5052295;28;20202;-56
2022/08/18 12:31:02;;;;;;;11.25;6.10;;;31.30;90.90;;;;;;5052689;28;20259;-57
2022/08/18 12:33:29;;;;;;;6.70;6.00;;;31.10;91.10;;;;;;5051959;28;20229;-56
2022/08/18 12:35:57;;;;;;;7.70;5.93;;;31.10;91.10;;;;;;5050624;28;20271;-57
2022/08/18 12:38:23;;;;;;;7.60;6.00;;;30.80;91.10;;;;;;5051898;28;20205;-62
2022/08/18 12:40:50;;;;;;;8.20;5.53;;;30.50;91.30;;;;;;5052410;28;20217;-57
2022/08/18 12:43:17;;;;;;;7.43;5.55;;;30.40;91.30;;;;;;5052118;28;20213;-57
2022/08/18 12:45:46;;;;;;;7.35;5.60;;;30.40;91.10;;;;;;5051479;28;20291;-57
2022/08/18 12:48:13;;;;;;;9.52;6.07;;;30.40;91.20;;;;;;5051645;28;20227;-57
2022/08/18 12:50:41;;;;;;;9.90;5.32;;;30.50;90.30;;;;;;5051606;28;20209;-58
2022/08/18 12:53:08;;;;;;;6.78;5.45;;;30.60;90.20;;;;;;5051939;28;20230;-61
2022/08/18 12:55:40;;;;;;;5.85;4.95;;;30.50;90.00;;;;;;5051545;28;20225;-58
2022/08/18 12:58:06;;;;;;;5.38;4.82;;;30.10;90.00;;;;;;5051803;28;20205;-60
2022/08/18 13:00:34;;;;;;;6.15;4.72;;;29.80;90.60;;;;;;5051975;28;20665;-58
2022/08/18 13:03:03;;;;;;;5.13;4.43;;;29.70;90.00;;;;;;5051311;28;20215;-62
2022/08/18 13:05:30;;;;;;;5.93;5.20;;;29.80;90.10;;;;;;5050983;28;20249;-59
2022/08/18 13:08:00;;;;;;;6.25;4.68;;;30.10;89.70;;;;;;5051592;28;20209;-59
2022/08/18 13:10:27;;;;;;;5.35;4.28;;;30.60;87.70;;;;;;5052530;28;20278;-58
2022/08/18 13:12:53;;;;;;;5.57;4.90;;;30.80;86.90;;;;;;5051613;28;20244;-64
2022/08/18 13:15:20;;;;;;;7.07;4.95;;;30.80;86.50;;;;;;5051561;28;20229;-58
2022/08/18 13:17:49;;;;;;;5.38;4.70;;;30.60;86.50;;;;;;5051960;28;20684;-59
2022/08/18 13:20:17;;;;;;;5.55;4.60;;;30.50;86.40;;;;;;5052029;28;20240;-57
2022/08/18 13:22:44;;;;;;;5.68;5.05;;;30.50;86.30;;;;;;5052047;28;20208;-60
2022/08/18 13:25:13;;;;;;;6.10;5.20;;;30.60;87.30;;;;;;5051224;28;20235;-56
2022/08/18 13:27:40;;;;;;;5.10;4.60;;;30.50;86.40;;;;;;5051446;28;20219;-56
2022/08/18 13:30:10;;;;;;;5.30;4.80;;;30.40;86.30;;;;;;5051729;28;20263;-55
2022/08/18 13:32:37;;;;;;;5.32;4.82;;;30.30;87.20;;;;;;5052345;28;20575;-59